createdAt,value
2022-10-04T00:01:18.090Z,100.00
2022-10-04T00:03:50.668Z,100.00
2022-10-04T00:06:25.950Z,100.00
2022-10-04T00:08:58.090Z,100.00
2022-10-04T00:11:31.818Z,100.00
2022-10-04T00:14:01.534Z,100.00
2022-10-04T00:16:37.504Z,100.00
2022-10-04T00:19:26.011Z,100.00
2022-10-04T00:22:18.549Z,100.00
2022-10-04T00:25:22.868Z,100.00
2022-10-04T00:28:31.894Z,100.00
2022-10-04T00:31:24.617Z,100.00
2022-10-04T00:34:01.951Z,100.00
2022-10-04T00:36:53.240Z,100.00
2022-10-04T00:39:43.917Z,100.00
2022-10-04T00:42:37.616Z,100.00
2022-10-04T00:45:14.946Z,100.00
2022-10-04T00:48:02.298Z,100.00
2022-10-04T00:50:39.172Z,100.00
2022-10-04T00:53:20.311Z,100.00
2022-10-04T00:55:52.521Z,100.00
2022-10-04T00:58:28.227Z,100.00
2022-10-04T01:01:00.978Z,100.00
2022-10-04T01:03:34.777Z,100.00
2022-10-04T01:06:09.747Z,100.00
2022-10-04T01:08:45.511Z,100.00
2022-10-04T01:11:21.173Z,100.00
2022-10-04T01:13:57.766Z,100.00
2022-10-04T01:16:29.718Z,100.00
2022-10-04T01:19:32.825Z,100.00
2022-10-04T01:22:21.059Z,100.00
2022-10-04T01:24:52.503Z,100.00
2022-10-04T01:27:40.603Z,100.00
2022-10-04T01:30:13.907Z,100.00
2022-10-04T01:32:45.516Z,100.00
2022-10-04T01:35:17.010Z,100.00
2022-10-04T01:37:46.994Z,100.00
2022-10-04T01:40:18.428Z,100.00
2022-10-04T01:42:50.883Z,100.00
2022-10-04T01:45:25.681Z,100.00
2022-10-04T01:48:00.036Z,100.00
2022-10-04T01:50:32.601Z,100.00
2022-10-04T01:53:10.293Z,100.00
2022-10-04T01:55:44.386Z,100.00
2022-10-04T01:58:19.934Z,100.00
2022-10-04T02:00:55.564Z,100.00
2022-10-04T02:03:30.789Z,100.00
2022-10-04T02:06:05.741Z,100.00
2022-10-04T02:08:40.631Z,100.00
2022-10-04T02:11:20.262Z,100.00
2022-10-04T02:13:53.951Z,100.00
2022-10-04T02:16:25.033Z,100.00
2022-10-04T02:18:53.688Z,100.00
2022-10-04T02:21:25.915Z,100.00
2022-10-04T02:23:57.287Z,100.00
2022-10-04T02:26:30.868Z,100.00
2022-10-04T02:28:58.844Z,100.00
2022-10-04T02:31:47.673Z,100.00
2022-10-04T02:34:20.000Z,100.00
2022-10-04T02:36:52.111Z,100.00
2022-10-04T02:39:26.883Z,100.00
2022-10-04T02:42:06.155Z,100.00
2022-10-04T02:44:42.229Z,100.00
2022-10-04T02:47:19.802Z,100.00
2022-10-04T02:49:50.962Z,100.00
2022-10-04T02:52:27.000Z,100.00
2022-10-04T02:55:02.742Z,100.00
2022-10-04T02:57:36.941Z,100.00
2022-10-04T03:00:14.880Z,100.00
2022-10-04T03:03:16.133Z,100.00
2022-10-04T03:05:47.435Z,100.00
2022-10-04T03:08:19.571Z,100.00
2022-10-04T03:10:47.939Z,100.00
2022-10-04T03:13:20.523Z,100.00
2022-10-04T03:15:50.284Z,100.00
2022-10-04T03:18:20.200Z,100.00
2022-10-04T03:20:51.265Z,100.00
2022-10-04T03:23:22.140Z,100.00
2022-10-04T03:26:01.138Z,100.00
2022-10-04T03:28:31.111Z,100.00
2022-10-04T03:31:01.794Z,100.00
2022-10-04T03:33:30.563Z,100.00
2022-10-04T03:36:01.696Z,100.00
2022-10-04T03:38:37.612Z,100.00
2022-10-04T03:41:05.693Z,100.00
2022-10-04T03:43:46.082Z,100.00
2022-10-04T03:46:15.640Z,100.00
2022-10-04T03:48:52.241Z,100.00
2022-10-04T03:51:23.066Z,100.00
2022-10-04T03:53:57.546Z,100.00
2022-10-04T03:56:31.016Z,100.00
2022-10-04T03:59:07.245Z,100.00
2022-10-04T04:01:40.518Z,100.00
2022-10-04T04:04:21.714Z,100.00
2022-10-04T04:06:58.332Z,100.00
2022-10-04T04:09:39.971Z,100.00
2022-10-04T04:12:12.656Z,100.00
2022-10-04T04:14:45.746Z,100.00
2022-10-04T04:17:39.102Z,100.00
2022-10-04T04:20:25.942Z,100.00
2022-10-04T04:23:02.944Z,100.00
2022-10-04T04:25:40.125Z,100.00
2022-10-04T04:28:22.101Z,100.00
2022-10-04T04:30:57.916Z,100.00
2022-10-04T04:33:31.239Z,100.00
2022-10-04T04:36:08.463Z,100.00
2022-10-04T04:38:56.479Z,100.00
2022-10-04T04:41:30.984Z,100.00
2022-10-04T04:43:59.077Z,100.00
2022-10-04T04:46:30.945Z,100.00
2022-10-04T04:49:05.152Z,100.00
2022-10-04T04:51:35.158Z,100.00
2022-10-04T04:54:05.642Z,100.00
2022-10-04T04:56:36.056Z,100.00
2022-10-04T04:59:09.253Z,100.00
2022-10-04T05:01:46.798Z,100.00
2022-10-04T05:04:19.926Z,100.00
2022-10-04T05:06:51.582Z,100.00
2022-10-04T05:09:26.010Z,100.00
2022-10-04T05:12:00.912Z,100.00
2022-10-04T05:14:31.752Z,100.00
2022-10-04T05:17:05.839Z,100.00
2022-10-04T05:19:36.909Z,100.00
2022-10-04T05:22:13.158Z,100.00
2022-10-04T05:24:43.890Z,100.00
2022-10-04T05:27:18.415Z,100.00
2022-10-04T05:29:59.519Z,100.00
2022-10-04T05:32:43.692Z,100.00
2022-10-04T05:35:17.816Z,100.00
2022-10-04T05:37:58.242Z,100.00
2022-10-04T05:40:37.206Z,100.00
2022-10-04T05:43:25.239Z,100.00
2022-10-04T05:46:23.860Z,100.00
2022-10-04T05:48:58.935Z,100.00
2022-10-04T05:51:30.343Z,100.00
2022-10-04T05:54:05.118Z,100.00
2022-10-04T05:56:56.788Z,100.00
2022-10-04T05:59:43.415Z,100.00
2022-10-04T06:02:26.460Z,100.00
2022-10-04T06:05:11.369Z,100.00
2022-10-04T06:07:42.999Z,100.00
2022-10-04T06:10:29.735Z,100.00
2022-10-04T06:13:04.040Z,100.00
2022-10-04T06:15:56.132Z,100.00
2022-10-04T06:18:43.232Z,100.00
2022-10-04T06:21:46.006Z,100.00
2022-10-04T06:24:18.683Z,100.00
2022-10-04T06:26:51.734Z,100.00
2022-10-04T06:32:41.203Z,100.00
2022-10-04T06:35:47.207Z,100.00
2022-10-04T06:38:34.021Z,100.00
2022-10-04T06:41:22.463Z,100.00
2022-10-04T06:44:05.391Z,100.00
2022-10-04T06:46:39.181Z,100.00
2022-10-04T06:49:25.595Z,100.00
2022-10-04T06:52:09.608Z,100.00
2022-10-04T06:54:55.460Z,100.00
2022-10-04T06:57:45.805Z,100.00
2022-10-04T07:00:20.139Z,100.00
2022-10-04T07:02:52.578Z,100.00
2022-10-04T07:05:32.365Z,100.00
2022-10-04T07:08:12.119Z,100.00
2022-10-04T07:10:49.984Z,100.00
2022-10-04T07:13:33.224Z,100.00
2022-10-04T07:16:08.435Z,100.00
2022-10-04T07:18:46.102Z,100.00
2022-10-04T07:21:17.836Z,100.00
2022-10-04T07:23:50.443Z,100.00
2022-10-04T07:26:27.680Z,100.00
2022-10-04T07:29:20.052Z,100.00
2022-10-04T07:31:53.691Z,100.00
2022-10-04T07:34:27.604Z,100.00
2022-10-04T07:36:59.705Z,100.00
2022-10-04T07:39:33.262Z,100.00
2022-10-04T07:42:17.344Z,100.00
2022-10-04T07:44:56.799Z,100.00
2022-10-04T07:47:28.010Z,100.00
2022-10-04T07:49:58.301Z,100.00
2022-10-04T07:52:39.368Z,100.00
2022-10-04T07:55:19.505Z,100.00
2022-10-04T07:57:56.938Z,99.67
2022-10-04T08:00:29.974Z,100.00
2022-10-04T08:03:22.741Z,99.42
2022-10-04T08:05:59.896Z,96.71
2022-10-04T08:08:40.773Z,96.53
2022-10-04T08:11:31.222Z,93.12
2022-10-04T08:14:17.426Z,93.00
2022-10-04T08:16:57.263Z,92.97
2022-10-04T08:19:41.353Z,94.70
2022-10-04T08:22:23.436Z,91.47
2022-10-04T08:25:02.584Z,92.67
2022-10-04T08:28:07.270Z,89.10
2022-10-04T08:30:55.723Z,87.75
2022-10-04T08:33:38.324Z,88.32
2022-10-04T08:36:18.563Z,89.38
2022-10-04T08:38:51.694Z,87.67
2022-10-04T08:41:54.138Z,88.38
2022-10-04T08:44:51.756Z,87.79
2022-10-04T08:47:52.358Z,86.61
2022-10-04T08:50:44.321Z,88.99
2022-10-04T08:53:44.952Z,85.43
2022-10-04T08:56:18.446Z,84.45
2022-10-04T08:59:15.341Z,84.30
2022-10-04T09:02:25.439Z,86.76
2022-10-04T09:05:17.580Z,85.10
2022-10-04T09:08:18.217Z,85.14
2022-10-04T09:10:52.378Z,80.37
2022-10-04T09:13:45.717Z,84.43
2022-10-04T09:16:20.894Z,82.55
2022-10-04T09:19:09.309Z,82.89
2022-10-04T09:21:53.115Z,79.84
2022-10-04T09:24:45.254Z,80.71
2022-10-04T09:27:53.547Z,79.27
2022-10-04T09:30:20.793Z,78.86
2022-10-04T09:33:13.853Z,76.16
2022-10-04T09:36:16.313Z,77.74
2022-10-04T09:39:25.292Z,76.03
2022-10-04T09:42:20.340Z,76.49
2022-10-04T09:45:22.425Z,76.06
2022-10-04T09:48:09.802Z,77.45
2022-10-04T09:51:08.021Z,76.33
2022-10-04T09:53:46.379Z,73.84
2022-10-04T09:56:38.672Z,70.66
2022-10-04T09:59:23.682Z,71.72
2022-10-04T10:02:13.347Z,70.79
2022-10-04T10:04:52.773Z,73.16
2022-10-04T10:07:40.246Z,72.51
2022-10-04T10:10:40.767Z,73.91
2022-10-04T10:13:45.851Z,72.86
2022-10-04T10:16:34.287Z,71.99
2022-10-04T10:19:28.415Z,71.12
2022-10-04T10:22:15.601Z,73.48
2022-10-04T10:25:04.510Z,70.81
2022-10-04T10:27:50.591Z,65.06
2022-10-04T10:30:35.570Z,65.83
2022-10-04T10:33:34.164Z,66.38
2022-10-04T10:36:35.455Z,68.20
2022-10-04T10:39:34.762Z,69.81
2022-10-04T10:42:54.334Z,65.12
2022-10-04T10:45:45.711Z,66.18
2022-10-04T10:48:18.648Z,66.75
2022-10-04T10:51:02.794Z,67.25
2022-10-04T10:53:53.208Z,64.74
2022-10-04T10:56:37.990Z,64.71
2022-10-04T10:59:39.600Z,64.33
2022-10-04T11:03:12.207Z,65.36
2022-10-04T11:06:14.187Z,61.94
2022-10-04T11:09:12.128Z,64.06
2022-10-04T11:12:10.226Z,64.63
2022-10-04T11:15:02.524Z,62.60
2022-10-04T11:17:47.769Z,63.85
2022-10-04T11:20:43.443Z,60.91
2022-10-04T11:24:06.972Z,62.68
2022-10-04T11:27:06.405Z,63.26
2022-10-04T11:29:58.414Z,60.22
2022-10-04T11:32:52.731Z,60.08
2022-10-04T11:35:51.668Z,60.61
2022-10-04T11:38:35.730Z,60.52
2022-10-04T11:41:18.734Z,60.17
2022-10-04T11:44:17.430Z,60.40
2022-10-04T11:46:56.111Z,61.41
2022-10-04T11:49:56.618Z,60.06
2022-10-04T11:52:56.527Z,60.85
2022-10-04T11:55:54.482Z,60.05
2022-10-04T11:58:33.997Z,62.32
2022-10-04T12:01:38.925Z,61.89
2022-10-04T12:04:36.416Z,61.26
2022-10-04T12:07:23.328Z,62.87
2022-10-04T12:10:03.140Z,65.40
2022-10-04T12:12:50.776Z,65.28
2022-10-04T12:16:08.988Z,64.06
2022-10-04T12:19:15.758Z,62.53
2022-10-04T12:21:59.283Z,64.03
2022-10-04T12:24:58.898Z,63.20
2022-10-04T12:28:12.473Z,59.54
2022-10-04T12:30:58.671Z,61.09
2022-10-04T12:33:36.056Z,60.92
2022-10-04T12:36:24.994Z,60.04
2022-10-04T12:39:18.775Z,61.90
2022-10-04T12:41:56.148Z,59.35
2022-10-04T12:44:38.275Z,58.59
2022-10-04T12:47:39.808Z,61.67
2022-10-04T12:50:20.882Z,61.59
2022-10-04T12:52:56.438Z,64.64
2022-10-04T12:55:54.942Z,63.15
2022-10-04T12:58:30.195Z,63.63
2022-10-04T13:01:21.597Z,64.09
2022-10-04T13:04:11.016Z,66.75
2022-10-04T13:06:49.720Z,63.99
2022-10-04T13:09:33.841Z,63.70
2022-10-04T13:12:30.542Z,66.34
2022-10-04T13:15:24.707Z,66.08
2022-10-04T13:18:00.819Z,63.54
2022-10-04T13:20:48.758Z,64.11
2022-10-04T13:23:26.607Z,64.33
2022-10-04T13:26:35.965Z,64.70
2022-10-04T13:29:15.326Z,62.98
2022-10-04T13:31:51.293Z,63.73
2022-10-04T13:34:31.333Z,66.57
2022-10-04T13:37:17.541Z,60.79
2022-10-04T13:39:59.109Z,60.90
2022-10-04T13:42:48.116Z,60.19
2022-10-04T13:45:36.796Z,62.14
2022-10-04T13:48:23.989Z,60.41
2022-10-04T13:51:19.322Z,63.43
2022-10-04T13:54:14.344Z,64.85
2022-10-04T13:56:59.677Z,66.42
2022-10-04T13:59:41.928Z,63.30
2022-10-04T14:02:36.460Z,63.84
2022-10-04T14:05:38.293Z,66.66
2022-10-04T14:08:56.755Z,66.05
2022-10-04T14:12:00.606Z,68.74
2022-10-04T14:15:17.349Z,68.09
2022-10-04T14:18:24.749Z,68.08
2022-10-04T14:21:33.281Z,69.24
2022-10-04T14:24:39.008Z,71.19
2022-10-04T14:27:32.856Z,69.53
2022-10-04T14:30:17.435Z,71.65
2022-10-04T14:33:23.255Z,70.70
2022-10-04T14:36:04.286Z,72.82
2022-10-04T14:38:44.515Z,73.32
2022-10-04T14:41:45.147Z,77.73
2022-10-04T14:44:32.343Z,75.72
2022-10-04T14:47:13.297Z,76.70
2022-10-04T14:50:01.512Z,78.19
2022-10-04T14:52:39.357Z,80.16
2022-10-04T14:55:26.225Z,82.29
2022-10-04T14:58:06.113Z,84.48
2022-10-04T15:01:00.517Z,88.06
2022-10-04T15:03:42.385Z,89.30
2022-10-04T15:06:40.224Z,91.19
2022-10-04T15:09:27.044Z,92.27
2022-10-04T15:12:27.049Z,91.53
2022-10-04T15:15:19.169Z,91.97
2022-10-04T15:18:00.306Z,96.33
2022-10-04T15:20:35.407Z,94.57
2022-10-04T15:23:16.164Z,95.34
2022-10-04T15:25:48.395Z,97.84
2022-10-04T15:28:39.790Z,99.53
2022-10-04T15:31:18.716Z,100.00
2022-10-04T15:34:01.641Z,100.00
2022-10-04T15:36:48.267Z,100.00
2022-10-04T15:39:50.946Z,100.00
2022-10-04T15:42:26.265Z,100.00
2022-10-04T15:45:09.410Z,100.00
2022-10-04T15:47:55.694Z,100.00
2022-10-04T15:50:29.871Z,100.00
2022-10-04T15:53:26.693Z,100.00
2022-10-04T15:56:15.536Z,100.00
2022-10-04T15:59:22.166Z,100.00
2022-10-04T16:02:10.818Z,100.00
2022-10-04T16:04:45.066Z,100.00
2022-10-04T16:07:38.793Z,100.00
2022-10-04T16:10:27.557Z,100.00
2022-10-04T16:13:27.670Z,100.00
2022-10-04T16:16:35.018Z,100.00
2022-10-04T16:19:20.326Z,100.00
2022-10-04T16:21:54.007Z,100.00
2022-10-04T16:24:48.985Z,100.00
2022-10-04T16:28:05.871Z,100.00
2022-10-04T16:30:45.400Z,100.00
2022-10-04T16:33:29.004Z,100.00
2022-10-04T16:36:11.499Z,100.00
2022-10-04T16:39:08.656Z,100.00
2022-10-04T16:41:44.342Z,100.00
2022-10-04T16:44:36.082Z,100.00
2022-10-04T16:47:21.745Z,100.00
2022-10-04T16:49:54.922Z,100.00
2022-10-04T16:52:37.771Z,100.00
2022-10-04T16:55:22.789Z,100.00
2022-10-04T16:58:23.190Z,100.00
2022-10-04T17:01:33.466Z,100.00
2022-10-04T17:04:14.085Z,100.00
2022-10-04T17:06:49.459Z,100.00
2022-10-04T17:09:25.382Z,100.00
2022-10-04T17:12:15.279Z,100.00
2022-10-04T17:14:56.595Z,100.00
2022-10-04T17:17:41.982Z,100.00
2022-10-04T17:20:23.391Z,100.00
2022-10-04T17:23:06.224Z,100.00
2022-10-04T17:25:46.374Z,100.00
2022-10-04T17:28:27.508Z,100.00
2022-10-04T17:31:03.119Z,100.00
2022-10-04T17:33:41.880Z,100.00
2022-10-04T17:36:37.755Z,100.00
2022-10-04T17:39:40.864Z,100.00
2022-10-04T17:42:21.454Z,100.00
2022-10-04T17:44:57.518Z,100.00
2022-10-04T17:47:58.033Z,100.00
2022-10-04T17:50:44.874Z,100.00
2022-10-04T17:53:39.848Z,100.00
2022-10-04T17:56:11.716Z,100.00
2022-10-04T17:58:45.800Z,100.00
2022-10-04T18:01:18.947Z,100.00
2022-10-04T18:03:54.843Z,100.00
2022-10-04T18:06:35.795Z,100.00
2022-10-04T18:09:16.067Z,100.00
2022-10-04T18:11:51.041Z,100.00
2022-10-04T18:14:52.259Z,100.00
2022-10-04T18:17:33.232Z,100.00
2022-10-04T18:20:28.688Z,100.00
2022-10-04T18:23:17.205Z,100.00
2022-10-04T18:25:51.457Z,100.00
2022-10-04T18:28:23.977Z,100.00
2022-10-04T18:31:00.738Z,100.00
2022-10-04T18:33:49.069Z,100.00
2022-10-04T18:36:24.467Z,100.00
2022-10-04T18:39:23.638Z,100.00
2022-10-04T18:42:22.487Z,100.00
2022-10-04T18:45:03.103Z,100.00
2022-10-04T18:47:42.040Z,100.00
2022-10-04T18:50:22.031Z,100.00
2022-10-04T18:53:15.037Z,100.00
2022-10-04T18:56:02.751Z,100.00
2022-10-04T18:59:12.857Z,100.00
2022-10-04T19:02:03.727Z,100.00
2022-10-04T19:04:48.940Z,100.00
2022-10-04T19:07:32.383Z,100.00
2022-10-04T19:10:23.819Z,100.00
2022-10-04T19:13:13.313Z,100.00
2022-10-04T19:16:01.353Z,100.00
2022-10-04T19:18:45.286Z,100.00
2022-10-04T19:21:25.370Z,100.00
2022-10-04T19:24:33.948Z,100.00
2022-10-04T19:27:11.109Z,100.00
2022-10-04T19:29:58.878Z,100.00
2022-10-04T19:32:46.260Z,100.00
2022-10-04T19:35:33.116Z,100.00
2022-10-04T19:38:14.020Z,100.00
2022-10-04T19:40:49.761Z,100.00
2022-10-04T19:43:26.957Z,100.00
2022-10-04T19:46:15.282Z,100.00
2022-10-04T19:48:52.926Z,100.00
2022-10-04T19:51:34.214Z,100.00
2022-10-04T19:54:15.750Z,100.00
2022-10-04T19:56:48.829Z,100.00
2022-10-04T19:59:24.070Z,100.00
2022-10-04T20:01:54.330Z,100.00
2022-10-04T20:04:40.345Z,100.00
2022-10-04T20:07:22.554Z,100.00
2022-10-04T20:10:15.533Z,100.00
2022-10-04T20:13:25.586Z,100.00
2022-10-04T20:15:55.183Z,100.00
2022-10-04T20:19:05.810Z,100.00
2022-10-04T20:21:38.868Z,100.00
2022-10-04T20:24:17.250Z,100.00
2022-10-04T20:26:58.309Z,100.00
2022-10-04T20:30:05.277Z,100.00
2022-10-04T20:33:00.958Z,100.00
2022-10-04T20:36:09.314Z,100.00
2022-10-04T20:38:52.122Z,100.00
2022-10-04T20:42:04.549Z,100.00
2022-10-04T20:44:46.606Z,100.00
2022-10-04T20:47:24.047Z,100.00
2022-10-04T20:49:53.145Z,100.00
2022-10-04T20:52:27.300Z,100.00
2022-10-04T20:54:58.541Z,100.00
2022-10-04T20:57:26.596Z,100.00
2022-10-04T20:59:56.474Z,100.00
2022-10-04T21:02:28.682Z,100.00
2022-10-04T21:05:13.299Z,100.00
2022-10-04T21:07:43.176Z,100.00
2022-10-04T21:10:19.647Z,100.00
2022-10-04T21:12:51.195Z,100.00
2022-10-04T21:15:22.610Z,100.00
2022-10-04T21:18:04.081Z,100.00
2022-10-04T21:20:47.550Z,100.00
2022-10-04T21:23:25.574Z,100.00
2022-10-04T21:26:21.018Z,100.00
2022-10-04T21:28:50.152Z,100.00
2022-10-04T21:31:21.448Z,100.00
2022-10-04T21:33:49.647Z,100.00
2022-10-04T21:36:19.790Z,100.00
2022-10-04T21:38:50.347Z,100.00
2022-10-04T21:41:19.501Z,100.00
2022-10-04T21:43:49.764Z,100.00
2022-10-04T21:46:20.760Z,100.00
2022-10-04T21:48:49.691Z,100.00
2022-10-04T21:51:20.233Z,100.00
2022-10-04T21:53:50.608Z,100.00
2022-10-04T21:56:20.580Z,100.00
2022-10-04T21:58:50.960Z,100.00
2022-10-04T22:01:21.669Z,100.00
2022-10-04T22:03:49.972Z,100.00
2022-10-04T22:06:21.327Z,100.00
2022-10-04T22:08:51.749Z,100.00
2022-10-04T22:11:21.495Z,100.00
2022-10-04T22:13:51.471Z,100.00
2022-10-04T22:16:21.665Z,100.00
2022-10-04T22:18:49.737Z,100.00
2022-10-04T22:21:19.590Z,100.00
2022-10-04T22:23:47.570Z,100.00
2022-10-04T22:26:17.327Z,100.00
2022-10-04T22:28:50.108Z,100.00
2022-10-04T22:31:22.446Z,100.00
2022-10-04T22:33:53.885Z,100.00
2022-10-04T22:36:36.826Z,100.00
2022-10-04T22:39:16.049Z,100.00
2022-10-04T22:41:47.393Z,100.00
2022-10-04T22:44:21.580Z,100.00
2022-10-04T22:46:52.783Z,100.00
2022-10-04T22:49:25.182Z,100.00
2022-10-04T22:51:57.374Z,100.00
2022-10-04T22:54:28.967Z,100.00
2022-10-04T22:56:59.441Z,100.00
2022-10-04T22:59:36.539Z,100.00
2022-10-04T23:02:11.490Z,100.00
2022-10-04T23:04:42.976Z,100.00
2022-10-04T23:07:13.086Z,100.00
2022-10-04T23:09:41.482Z,100.00
2022-10-04T23:12:12.344Z,100.00
2022-10-04T23:14:43.412Z,100.00
2022-10-04T23:17:24.885Z,100.00
2022-10-04T23:19:55.317Z,100.00
2022-10-04T23:22:29.530Z,100.00
2022-10-04T23:24:57.944Z,100.00
2022-10-04T23:27:28.138Z,100.00
2022-10-04T23:30:04.581Z,100.00
2022-10-04T23:32:34.625Z,100.00
2022-10-04T23:35:05.044Z,100.00
2022-10-04T23:37:35.661Z,100.00
2022-10-04T23:40:10.746Z,100.00
2022-10-04T23:42:40.653Z,100.00
2022-10-04T23:45:17.560Z,100.00
2022-10-04T23:47:48.945Z,100.00
2022-10-04T23:50:22.972Z,100.00
2022-10-04T23:52:52.870Z,100.00
2022-10-04T23:55:25.029Z,100.00
2022-10-04T23:57:52.827Z,100.00
